createdAt,value
2017-06-30T00:01:05.578Z,2.00
2017-06-30T00:03:33.848Z,1.73
2017-06-30T00:06:02.114Z,1.97
2017-06-30T00:08:30.339Z,1.60
2017-06-30T00:10:58.617Z,1.53
2017-06-30T00:13:26.852Z,1.20
2017-06-30T00:15:55.139Z,1.63
2017-06-30T00:18:23.707Z,1.23
2017-06-30T00:20:51.951Z,1.60
2017-06-30T00:23:20.181Z,1.30
2017-06-30T00:25:48.851Z,1.00
2017-06-30T00:28:17.084Z,1.30
2017-06-30T00:30:45.324Z,1.20
2017-06-30T00:33:13.699Z,1.30
2017-06-30T00:35:41.942Z,1.20
2017-06-30T00:38:10.176Z,1.47
2017-06-30T00:40:38.459Z,1.30
2017-06-30T00:43:06.700Z,1.00
2017-06-30T00:45:34.931Z,1.00
2017-06-30T00:48:03.204Z,1.30
2017-06-30T00:50:31.448Z,1.23
2017-06-30T00:52:59.683Z,0.90
2017-06-30T00:55:27.958Z,1.20
2017-06-30T00:57:56.188Z,1.00
2017-06-30T01:00:24.446Z,0.90
2017-06-30T01:02:52.715Z,1.27
2017-06-30T01:05:21.089Z,0.97
2017-06-30T01:07:49.728Z,1.00
2017-06-30T01:10:18.324Z,0.90
2017-06-30T01:12:46.554Z,0.77
2017-06-30T01:15:14.823Z,1.00
2017-06-30T01:17:43.143Z,1.10
2017-06-30T01:20:11.378Z,1.00
2017-06-30T01:22:39.604Z,1.30
2017-06-30T01:25:07.879Z,1.60
2017-06-30T01:27:36.148Z,2.27
2017-06-30T01:30:04.384Z,1.37
2017-06-30T01:32:32.669Z,1.33
2017-06-30T01:35:01.191Z,1.60
2017-06-30T01:37:29.450Z,1.40
2017-06-30T01:39:57.785Z,1.80
2017-06-30T01:42:26.021Z,1.50
2017-06-30T01:44:54.260Z,1.27
2017-06-30T01:47:22.539Z,1.00
2017-06-30T01:49:50.769Z,1.30
2017-06-30T01:52:19.398Z,1.10
2017-06-30T01:54:47.781Z,0.90
2017-06-30T01:57:16.024Z,1.10
2017-06-30T01:59:44.255Z,1.10
2017-06-30T02:02:12.854Z,1.07
2017-06-30T02:04:41.091Z,0.90
2017-06-30T02:07:09.595Z,0.90
2017-06-30T02:09:38.193Z,0.97
2017-06-30T02:12:06.476Z,0.87
2017-06-30T02:14:34.724Z,0.80
2017-06-30T02:17:02.991Z,0.90
2017-06-30T02:19:31.228Z,1.00
2017-06-30T02:21:59.467Z,0.70
2017-06-30T02:24:27.731Z,0.80
2017-06-30T02:26:55.966Z,0.83
2017-06-30T02:29:24.209Z,0.70
2017-06-30T02:31:52.919Z,0.90
2017-06-30T02:34:21.155Z,0.90
2017-06-30T02:36:49.415Z,1.00
2017-06-30T02:39:17.659Z,0.70
2017-06-30T02:41:45.966Z,0.93
2017-06-30T02:44:14.204Z,0.90
2017-06-30T02:46:42.479Z,0.70
2017-06-30T02:49:10.720Z,0.83
2017-06-30T02:51:39.622Z,0.60
2017-06-30T02:54:08.287Z,0.80
2017-06-30T02:56:36.515Z,0.90
2017-06-30T02:59:04.747Z,1.00
2017-06-30T03:01:33.437Z,0.90
2017-06-30T03:04:01.659Z,0.90
2017-06-30T03:06:29.918Z,0.93
2017-06-30T03:08:58.233Z,1.00
2017-06-30T03:11:26.471Z,0.90
2017-06-30T03:13:54.709Z,0.80
2017-06-30T03:16:23.403Z,1.30
2017-06-30T03:18:51.620Z,1.20
2017-06-30T03:21:20.042Z,1.10
2017-06-30T03:23:48.295Z,2.37
2017-06-30T03:26:16.529Z,1.90
2017-06-30T03:28:44.779Z,1.57
2017-06-30T03:31:13.467Z,1.50
2017-06-30T03:33:41.711Z,1.50
2017-06-30T03:36:09.934Z,1.80
2017-06-30T03:38:38.217Z,1.70
2017-06-30T03:41:06.748Z,1.50
2017-06-30T03:43:34.997Z,1.73
2017-06-30T03:46:03.651Z,1.90
2017-06-30T03:48:33.354Z,2.10
2017-06-30T03:51:02.922Z,2.00
2017-06-30T03:53:33.655Z,1.50
2017-06-30T03:56:01.948Z,1.80
2017-06-30T03:58:30.184Z,2.20
2017-06-30T04:00:58.456Z,2.30
2017-06-30T04:03:26.692Z,1.70
2017-06-30T04:05:55.319Z,2.00
2017-06-30T04:08:23.599Z,3.03
2017-06-30T04:10:51.831Z,2.60
2017-06-30T04:13:20.174Z,2.23
2017-06-30T04:15:48.421Z,2.30
2017-06-30T04:18:17.170Z,2.20
2017-06-30T04:20:46.655Z,2.00
2017-06-30T04:23:14.955Z,2.40
2017-06-30T04:25:43.183Z,1.90
2017-06-30T04:28:11.436Z,2.17
2017-06-30T04:30:39.687Z,2.40
2017-06-30T04:33:07.931Z,2.30
2017-06-30T04:35:36.577Z,1.80
2017-06-30T04:38:04.820Z,1.80
2017-06-30T04:40:33.051Z,1.97
2017-06-30T04:43:01.286Z,2.13
2017-06-30T04:45:29.597Z,2.07
2017-06-30T04:47:57.820Z,1.87
2017-06-30T04:50:26.365Z,1.97
2017-06-30T04:52:54.628Z,1.70
2017-06-30T04:55:23.550Z,1.60
2017-06-30T04:57:51.794Z,1.40
2017-06-30T05:00:20.064Z,1.50
2017-06-30T05:02:48.323Z,1.60
2017-06-30T05:05:16.629Z,1.73
2017-06-30T05:07:44.873Z,1.60
2017-06-30T05:10:13.129Z,1.60
2017-06-30T05:12:41.359Z,1.97
2017-06-30T05:15:09.636Z,1.70
2017-06-30T05:17:38.358Z,1.60
2017-06-30T05:20:06.758Z,1.90
2017-06-30T05:22:35.046Z,1.60
2017-06-30T05:25:03.359Z,1.20
2017-06-30T05:27:32.012Z,1.40
2017-06-30T05:30:00.308Z,1.40
2017-06-30T05:32:28.587Z,1.30
2017-06-30T05:34:57.076Z,1.40
2017-06-30T05:37:25.339Z,1.50
2017-06-30T05:39:53.579Z,1.40
2017-06-30T05:42:21.827Z,1.40
2017-06-30T05:44:50.582Z,1.50
2017-06-30T05:47:18.795Z,1.63
2017-06-30T05:49:47.129Z,1.30
2017-06-30T05:52:15.390Z,1.60
2017-06-30T05:54:43.616Z,1.90
2017-06-30T05:57:12.244Z,1.77
2017-06-30T05:59:40.539Z,1.53
2017-06-30T06:02:08.785Z,1.60
2017-06-30T06:04:37.023Z,1.70
2017-06-30T06:07:05.294Z,1.70
2017-06-30T06:09:33.520Z,1.70
2017-06-30T06:12:01.768Z,1.70
2017-06-30T06:14:30.040Z,1.87
2017-06-30T06:16:58.679Z,1.90
2017-06-30T06:19:26.899Z,1.80
2017-06-30T06:21:55.444Z,2.03
2017-06-30T06:24:23.693Z,2.17
2017-06-30T06:26:51.916Z,1.90
2017-06-30T06:29:20.604Z,1.90
2017-06-30T06:31:48.846Z,1.53
2017-06-30T06:34:17.095Z,1.90
2017-06-30T06:36:45.373Z,2.03
2017-06-30T06:39:13.628Z,1.90
2017-06-30T06:41:41.858Z,1.80
2017-06-30T06:44:10.534Z,2.00
2017-06-30T06:46:38.770Z,2.07
2017-06-30T06:49:07.016Z,1.87
2017-06-30T06:51:35.274Z,2.30
2017-06-30T06:54:03.641Z,2.17
2017-06-30T06:56:31.860Z,2.03
2017-06-30T06:59:00.605Z,2.23
2017-06-30T07:01:29.089Z,1.80
2017-06-30T07:03:57.328Z,2.17
2017-06-30T07:06:25.575Z,2.57
2017-06-30T07:08:53.857Z,2.47
2017-06-30T07:11:22.096Z,2.50
2017-06-30T07:13:50.440Z,2.27
2017-06-30T07:16:18.670Z,1.90
2017-06-30T07:18:46.932Z,2.30
2017-06-30T07:21:15.191Z,2.60
2017-06-30T07:23:43.436Z,2.40
2017-06-30T07:26:11.841Z,2.40
2017-06-30T07:28:40.536Z,2.47
2017-06-30T07:31:08.775Z,2.30
2017-06-30T07:33:37.015Z,2.20
2017-06-30T07:36:06.482Z,2.23
2017-06-30T07:38:36.682Z,2.40
2017-06-30T07:41:05.116Z,2.17
2017-06-30T07:43:34.356Z,2.57
2017-06-30T07:46:05.419Z,2.50
2017-06-30T07:48:34.120Z,3.27
2017-06-30T07:51:02.464Z,2.90
2017-06-30T07:53:30.717Z,2.80
2017-06-30T07:55:59.450Z,3.33
2017-06-30T07:58:27.682Z,2.90
2017-06-30T08:00:55.946Z,2.53
2017-06-30T08:03:24.237Z,4.07
2017-06-30T08:05:53.691Z,3.43
2017-06-30T08:08:22.117Z,4.63
2017-06-30T08:10:50.386Z,4.87
2017-06-30T08:13:18.622Z,6.30
2017-06-30T08:15:47.672Z,6.50
2017-06-30T08:18:15.936Z,6.50
2017-06-30T08:20:44.174Z,7.20
2017-06-30T08:23:12.812Z,7.30
2017-06-30T08:25:41.077Z,7.40
2017-06-30T08:28:09.313Z,7.40
2017-06-30T08:30:37.564Z,7.83
2017-06-30T08:33:05.840Z,7.33
2017-06-30T08:35:34.173Z,7.60
2017-06-30T08:38:02.599Z,8.07
2017-06-30T08:40:30.874Z,8.00
2017-06-30T08:42:59.107Z,7.67
2017-06-30T08:45:27.331Z,7.17
2017-06-30T08:47:55.620Z,6.60
2017-06-30T08:50:23.879Z,7.60
2017-06-30T08:52:52.105Z,7.90
2017-06-30T08:55:20.373Z,8.90
2017-06-30T08:57:48.648Z,8.50
2017-06-30T09:00:16.981Z,6.80
2017-06-30T09:02:45.470Z,5.70
2017-06-30T09:05:13.716Z,6.90
2017-06-30T09:07:42.332Z,6.60
2017-06-30T09:10:10.620Z,5.90
2017-06-30T09:12:38.863Z,6.60
2017-06-30T09:15:07.100Z,5.40
2017-06-30T09:17:35.639Z,7.10
2017-06-30T09:20:03.972Z,7.90
2017-06-30T09:22:32.219Z,6.67
2017-06-30T09:25:00.939Z,8.27
2017-06-30T09:27:29.206Z,7.80
2017-06-30T09:29:57.448Z,6.90
2017-06-30T09:32:25.731Z,7.47
2017-06-30T09:34:54.385Z,6.60
2017-06-30T09:37:22.618Z,7.30
2017-06-30T09:39:50.879Z,6.10
2017-06-30T09:42:19.144Z,5.27
2017-06-30T09:44:47.901Z,5.50
2017-06-30T09:47:16.149Z,6.47
2017-06-30T09:49:44.377Z,7.50
2017-06-30T09:52:13.003Z,7.33
2017-06-30T09:54:41.291Z,6.63
2017-06-30T09:57:09.532Z,6.67
2017-06-30T09:59:37.860Z,7.00
2017-06-30T10:02:06.111Z,6.43
2017-06-30T10:04:36.111Z,5.53
2017-06-30T10:07:04.355Z,8.50
2017-06-30T10:09:32.902Z,9.80
2017-06-30T10:12:01.157Z,10.90
2017-06-30T10:14:29.443Z,11.70
2017-06-30T10:16:57.721Z,12.40
2017-06-30T10:19:25.973Z,11.97
2017-06-30T10:21:54.255Z,14.30
2017-06-30T10:24:22.559Z,16.47
2017-06-30T10:26:50.812Z,15.00
2017-06-30T10:29:19.334Z,15.13
2017-06-30T10:31:47.611Z,15.10
2017-06-30T10:34:15.856Z,16.07
2017-06-30T10:36:44.101Z,14.50
2017-06-30T10:39:12.413Z,15.93
2017-06-30T10:41:40.669Z,14.23
2017-06-30T10:44:08.925Z,14.07
2017-06-30T10:46:37.708Z,14.90
2017-06-30T10:49:05.969Z,14.27
2017-06-30T10:51:34.723Z,14.33
2017-06-30T10:54:03.086Z,12.80
2017-06-30T10:56:31.343Z,14.80
2017-06-30T10:58:59.591Z,15.07
2017-06-30T11:01:28.300Z,13.80
2017-06-30T11:03:56.536Z,12.30
2017-06-30T11:06:24.800Z,13.00
2017-06-30T11:08:53.070Z,13.60
2017-06-30T11:11:21.344Z,14.00
2017-06-30T11:13:49.572Z,12.70
2017-06-30T11:16:17.898Z,13.50
2017-06-30T11:18:46.159Z,13.70
2017-06-30T11:21:14.665Z,14.50
2017-06-30T11:23:42.943Z,10.97
2017-06-30T11:26:11.624Z,11.80
2017-06-30T11:28:39.875Z,11.17
2017-06-30T11:31:08.488Z,10.07
2017-06-30T11:33:36.855Z,9.47
2017-06-30T11:36:05.085Z,10.50
2017-06-30T11:38:33.386Z,11.27
2017-06-30T11:41:01.646Z,10.00
2017-06-30T11:43:29.911Z,11.50
2017-06-30T11:45:58.205Z,11.87
2017-06-30T11:48:26.613Z,12.10
2017-06-30T11:50:54.849Z,11.80
2017-06-30T11:53:23.125Z,11.67
2017-06-30T11:55:51.375Z,9.23
2017-06-30T11:58:20.023Z,11.50
2017-06-30T12:00:48.315Z,11.10
2017-06-30T12:03:16.560Z,9.50
2017-06-30T12:05:44.832Z,11.47
2017-06-30T12:08:13.180Z,10.60
2017-06-30T12:10:41.452Z,10.10
2017-06-30T12:13:09.709Z,10.30
2017-06-30T12:15:38.380Z,9.53
2017-06-30T12:18:06.624Z,11.80
2017-06-30T12:20:35.023Z,10.33
2017-06-30T12:23:03.406Z,10.93
2017-06-30T12:25:31.639Z,9.90
2017-06-30T12:28:00.103Z,10.20
2017-06-30T12:30:28.389Z,9.73
2017-06-30T12:32:56.656Z,10.70
2017-06-30T12:35:24.890Z,10.07
2017-06-30T12:37:53.184Z,10.40
2017-06-30T12:40:21.442Z,10.30
2017-06-30T12:42:49.692Z,10.77
2017-06-30T12:45:17.987Z,10.23
2017-06-30T12:47:46.211Z,9.87
2017-06-30T12:50:14.508Z,10.50
2017-06-30T12:52:42.789Z,10.10
2017-06-30T12:55:11.042Z,9.33
2017-06-30T12:57:39.271Z,9.97
2017-06-30T13:00:07.787Z,10.00
2017-06-30T13:02:36.420Z,9.70
2017-06-30T13:05:04.664Z,9.57
2017-06-30T13:07:32.963Z,9.47
2017-06-30T13:10:01.259Z,9.70
2017-06-30T13:12:29.489Z,10.40
2017-06-30T13:14:57.761Z,11.27
2017-06-30T13:17:25.999Z,10.30
2017-06-30T13:19:54.276Z,10.57
2017-06-30T13:22:22.559Z,11.07
2017-06-30T13:24:51.240Z,11.63
2017-06-30T13:27:19.967Z,11.60
2017-06-30T13:29:48.262Z,10.93
2017-06-30T13:32:16.498Z,10.93
2017-06-30T13:34:45.142Z,11.40
2017-06-30T13:37:13.426Z,11.33
2017-06-30T13:39:41.687Z,10.80
2017-06-30T13:42:09.932Z,11.70
2017-06-30T13:44:38.243Z,11.60
2017-06-30T13:47:06.632Z,11.13
2017-06-30T13:49:34.863Z,11.20
2017-06-30T13:52:03.166Z,12.00
2017-06-30T13:54:31.408Z,10.60
2017-06-30T13:56:59.660Z,10.70
2017-06-30T13:59:28.347Z,10.47
2017-06-30T14:01:56.984Z,11.40
2017-06-30T14:04:25.234Z,10.73
2017-06-30T14:06:53.504Z,12.37
2017-06-30T14:09:22.047Z,11.50
2017-06-30T14:11:50.300Z,12.40
2017-06-30T14:14:18.692Z,13.10
2017-06-30T14:16:47.128Z,13.17
2017-06-30T14:19:15.446Z,12.73
2017-06-30T14:21:43.732Z,13.77
2017-06-30T14:24:12.106Z,11.70
2017-06-30T14:26:40.346Z,13.00
2017-06-30T14:29:08.640Z,15.53
2017-06-30T14:31:36.896Z,13.10
2017-06-30T14:34:05.163Z,16.00
2017-06-30T14:36:34.379Z,12.77
2017-06-30T14:39:02.904Z,13.03
2017-06-30T14:41:31.201Z,14.23
2017-06-30T14:43:59.509Z,14.07
2017-06-30T14:46:27.818Z,16.67
2017-06-30T14:48:56.090Z,15.40
2017-06-30T14:51:24.381Z,16.10
2017-06-30T14:53:52.648Z,13.10
2017-06-30T14:56:20.923Z,12.77
2017-06-30T14:58:49.245Z,11.23
2017-06-30T15:01:17.577Z,11.30
2017-06-30T15:03:45.841Z,12.87
2017-06-30T15:06:14.112Z,10.50
2017-06-30T15:08:42.399Z,11.10
2017-06-30T15:11:10.623Z,9.50
2017-06-30T15:13:38.908Z,9.80
2017-06-30T15:16:07.186Z,7.80
2017-06-30T15:18:35.419Z,8.63
2017-06-30T15:21:03.699Z,6.90
2017-06-30T15:23:31.940Z,7.53
2017-06-30T15:26:00.184Z,6.53
2017-06-30T15:28:28.471Z,7.00
2017-06-30T15:30:56.718Z,7.53
2017-06-30T15:33:25.367Z,6.83
2017-06-30T15:35:53.666Z,8.10
2017-06-30T15:38:21.925Z,7.53
2017-06-30T15:40:50.153Z,6.80
2017-06-30T15:43:18.448Z,6.87
2017-06-30T15:45:46.678Z,6.90
2017-06-30T15:48:14.936Z,7.90
2017-06-30T15:50:43.196Z,8.00
2017-06-30T15:53:11.515Z,8.37
2017-06-30T15:55:40.271Z,7.03
2017-06-30T15:58:08.556Z,9.17
2017-06-30T16:00:37.029Z,8.47
2017-06-30T16:03:05.279Z,9.47
2017-06-30T16:05:33.560Z,10.67
2017-06-30T16:08:02.573Z,9.37
2017-06-30T16:10:30.820Z,14.10
2017-06-30T16:12:59.335Z,12.33
2017-06-30T16:15:27.578Z,10.17
2017-06-30T16:17:55.836Z,7.67
2017-06-30T16:20:24.369Z,6.57
2017-06-30T16:22:52.599Z,5.83
2017-06-30T16:25:20.835Z,6.10
2017-06-30T16:27:49.140Z,9.40
2017-06-30T16:30:17.375Z,9.40
2017-06-30T16:32:45.616Z,8.67
2017-06-30T16:35:14.613Z,7.10
2017-06-30T16:37:42.839Z,5.27
2017-06-30T16:40:11.190Z,4.47
2017-06-30T16:42:39.450Z,4.13
2017-06-30T16:45:07.712Z,4.20
2017-06-30T16:47:35.971Z,4.10
2017-06-30T16:50:04.248Z,3.57
2017-06-30T16:52:32.768Z,3.90
2017-06-30T16:55:01.045Z,4.70
2017-06-30T16:57:29.321Z,4.13
2017-06-30T16:59:57.553Z,3.17
2017-06-30T17:02:25.800Z,3.57
2017-06-30T17:04:54.465Z,4.07
2017-06-30T17:07:22.725Z,3.43
2017-06-30T17:09:51.104Z,3.67
2017-06-30T17:12:21.121Z,3.40
2017-06-30T17:14:49.379Z,11.43
2017-06-30T17:17:17.615Z,3.20
2017-06-30T17:19:45.888Z,3.37
2017-06-30T17:22:14.511Z,3.10
2017-06-30T17:24:42.744Z,3.67
2017-06-30T17:27:11.509Z,3.03
2017-06-30T17:32:14.976Z,5.00
2017-06-30T17:34:43.283Z,4.63
2017-06-30T17:37:11.588Z,3.10
2017-06-30T17:39:39.895Z,3.17
2017-06-30T17:42:08.299Z,2.87
2017-06-30T17:44:36.911Z,3.93
2017-06-30T17:47:05.239Z,5.50
2017-06-30T17:49:33.479Z,4.07
2017-06-30T17:52:01.715Z,4.57
2017-06-30T17:54:33.708Z,4.50
2017-06-30T17:57:02.479Z,4.40
2017-06-30T17:59:30.698Z,5.07
2017-06-30T18:01:58.990Z,5.20
2017-06-30T18:04:27.227Z,4.67
2017-06-30T18:06:55.487Z,5.37
2017-06-30T18:09:23.791Z,4.60
2017-06-30T18:11:52.248Z,3.50
2017-06-30T18:14:20.508Z,3.90
2017-06-30T18:16:48.873Z,3.73
2017-06-30T18:19:17.565Z,3.00
2017-06-30T18:21:45.814Z,3.40
2017-06-30T18:24:14.078Z,3.37
2017-06-30T18:26:42.404Z,3.33
2017-06-30T18:29:10.621Z,5.30
2017-06-30T18:31:38.901Z,4.43
2017-06-30T18:34:07.265Z,4.30
2017-06-30T18:36:35.891Z,4.90
2017-06-30T18:39:05.506Z,4.73
2017-06-30T18:41:34.074Z,5.13
2017-06-30T18:44:02.599Z,4.53
2017-06-30T18:46:30.881Z,5.20
2017-06-30T18:48:59.118Z,3.00
2017-06-30T18:51:27.378Z,4.53
2017-06-30T18:53:55.719Z,3.33
2017-06-30T18:56:25.004Z,3.90
2017-06-30T18:58:54.039Z,3.03
2017-06-30T19:01:22.936Z,2.70
2017-06-30T19:03:51.169Z,2.60
2017-06-30T19:06:19.474Z,2.37
2017-06-30T19:08:47.765Z,2.77
2017-06-30T19:11:16.052Z,2.90
2017-06-30T19:13:44.400Z,2.80
2017-06-30T19:16:14.187Z,2.50
2017-06-30T19:18:42.742Z,2.50
2017-06-30T19:21:10.971Z,2.13
2017-06-30T19:23:39.641Z,2.27
2017-06-30T19:26:07.886Z,2.10
2017-06-30T19:28:36.133Z,4.87
2017-06-30T19:31:04.416Z,4.00
2017-06-30T19:33:32.696Z,2.47
2017-06-30T19:36:00.919Z,2.40
2017-06-30T19:38:29.184Z,2.33
2017-06-30T19:40:57.661Z,2.60
2017-06-30T19:43:28.608Z,2.37
2017-06-30T19:45:56.846Z,2.40
2017-06-30T19:48:25.079Z,2.20
2017-06-30T19:50:53.398Z,3.40
2017-06-30T19:53:21.631Z,3.37
2017-06-30T19:55:49.911Z,2.70
2017-06-30T19:58:18.585Z,3.20
2017-06-30T20:00:48.240Z,2.63
2017-06-30T20:03:16.475Z,2.90
2017-06-30T20:05:45.435Z,3.00
2017-06-30T20:08:13.675Z,3.30
2017-06-30T20:10:42.260Z,3.50
2017-06-30T20:13:10.539Z,2.77
2017-06-30T20:15:38.779Z,3.47
2017-06-30T20:18:07.436Z,4.00
2017-06-30T20:20:35.712Z,3.70
2017-06-30T20:23:07.978Z,3.00
2017-06-30T20:25:37.929Z,4.07
2017-06-30T20:28:10.249Z,3.27
2017-06-30T20:30:38.577Z,4.03
2017-06-30T20:33:06.914Z,3.73
2017-06-30T20:35:35.135Z,3.87
2017-06-30T20:38:03.420Z,4.00
2017-06-30T20:40:31.657Z,2.93
2017-06-30T20:43:00.014Z,3.13
2017-06-30T20:45:28.289Z,3.53
2017-06-30T20:47:57.084Z,4.27
2017-06-30T20:50:25.296Z,3.20
2017-06-30T20:52:53.576Z,4.60
2017-06-30T20:55:21.811Z,5.57
2017-06-30T20:57:50.064Z,5.43
2017-06-30T21:00:18.327Z,5.23
2017-06-30T21:02:46.560Z,3.83
2017-06-30T21:05:15.191Z,5.17
2017-06-30T21:07:43.449Z,4.17
2017-06-30T21:10:11.681Z,5.40
2017-06-30T21:12:39.923Z,4.07
2017-06-30T21:15:08.308Z,6.57
2017-06-30T21:17:36.619Z,5.30
2017-06-30T21:20:04.844Z,3.97
2017-06-30T21:22:33.124Z,5.20
2017-06-30T21:25:01.366Z,4.70
2017-06-30T21:27:30.113Z,4.70
2017-06-30T21:29:58.389Z,4.50
2017-06-30T21:32:26.768Z,4.20
2017-06-30T21:34:55.252Z,4.80
2017-06-30T21:37:23.570Z,5.10
2017-06-30T21:39:52.696Z,3.47
2017-06-30T21:42:20.930Z,4.50
2017-06-30T21:44:49.242Z,3.80
2017-06-30T21:47:17.476Z,4.20
2017-06-30T21:49:45.743Z,4.23
2017-06-30T21:52:14.013Z,3.63
2017-06-30T21:54:42.483Z,3.60
2017-06-30T21:57:10.855Z,5.60
2017-06-30T21:59:39.101Z,4.20
2017-06-30T22:02:07.694Z,5.60
2017-06-30T22:04:36.032Z,5.73
2017-06-30T22:07:04.683Z,5.33
2017-06-30T22:09:33.164Z,4.00
2017-06-30T22:12:01.398Z,5.93
2017-06-30T22:14:29.655Z,6.07
2017-06-30T22:16:57.892Z,4.77
2017-06-30T22:19:26.265Z,3.90
2017-06-30T22:21:54.525Z,4.40
2017-06-30T22:24:22.766Z,5.93
2017-06-30T22:26:51.022Z,6.50
2017-06-30T22:29:19.724Z,6.13
2017-06-30T22:31:47.972Z,7.50
2017-06-30T22:34:16.203Z,6.07
2017-06-30T22:36:44.491Z,6.30
2017-06-30T22:39:12.736Z,6.07
2017-06-30T22:41:40.964Z,5.80
2017-06-30T22:44:09.241Z,3.97
2017-06-30T22:46:37.467Z,3.67
2017-06-30T22:49:05.708Z,3.70
2017-06-30T22:51:33.973Z,4.87
2017-06-30T22:54:02.208Z,3.87
2017-06-30T22:56:30.439Z,4.73
2017-06-30T22:58:59.602Z,4.30
2017-06-30T23:01:27.831Z,3.80
2017-06-30T23:03:56.069Z,5.50
2017-06-30T23:06:24.327Z,5.87
2017-06-30T23:08:52.564Z,2.73
2017-06-30T23:11:20.795Z,4.10
2017-06-30T23:13:49.061Z,4.63
2017-06-30T23:16:17.299Z,6.50
2017-06-30T23:18:45.747Z,3.23
2017-06-30T23:21:14.143Z,3.90
2017-06-30T23:23:42.463Z,5.23
2017-06-30T23:26:10.696Z,3.90
2017-06-30T23:28:38.984Z,4.20
2017-06-30T23:31:07.609Z,3.00
2017-06-30T23:33:36.088Z,5.90
2017-06-30T23:36:04.670Z,4.43
2017-06-30T23:38:33.331Z,4.30
2017-06-30T23:41:01.581Z,4.60
2017-06-30T23:43:29.852Z,3.17
2017-06-30T23:45:58.097Z,3.73
2017-06-30T23:48:26.570Z,5.20
2017-06-30T23:50:54.853Z,5.60
2017-06-30T23:53:23.483Z,5.07
2017-06-30T23:55:51.719Z,5.50
2017-06-30T23:58:20.479Z,5.37
